Time;durP1;ratioP1;P1;durP2;ratioP2;P2;SDS_P1;SDS_P2;PMS_P1;PMS_P2;Temp;Humidity;BMP_temperature;BMP_pressure;BME280_temperature;BME280_humidity;BME280_pressure;Samples;Min_cycle;Max_cycle;Signal;HPM_P1;HPM_P2
2023/09/01 00:02:06;;;;;;;7.42;2.90;;;17.90;92.70;;;;;;918106;153;27424;-77
2023/09/01 00:04:33;;;;;;;2.98;2.35;;;17.90;93.00;;;;;;917486;153;27404;-77
2023/09/01 00:07:00;;;;;;;2.65;1.92;;;17.90;93.20;;;;;;918568;152;27393;-77
2023/09/01 00:09:26;;;;;;;2.98;2.37;;;17.90;93.40;;;;;;919038;153;27498;-77
2023/09/01 00:11:53;;;;;;;3.58;2.65;;;17.80;93.60;;;;;;917373;152;27290;-77
2023/09/01 00:14:19;;;;;;;3.40;2.20;;;17.80;94.00;;;;;;918880;152;27519;-77
2023/09/01 00:16:46;;;;;;;2.85;1.95;;;17.90;94.50;;;;;;917281;152;27417;-77
2023/09/01 00:19:12;;;;;;;2.67;2.45;;;17.80;94.70;;;;;;916787;153;27293;-77
2023/09/01 00:21:39;;;;;;;5.37;2.60;;;17.80;95.00;;;;;;918812;152;27370;-77
2023/09/01 00:24:06;;;;;;;3.17;2.72;;;17.80;95.20;;;;;;916998;153;27480;-77
2023/09/01 00:26:33;;;;;;;2.35;1.90;;;17.80;95.30;;;;;;917061;153;27404;-77
2023/09/01 00:28:59;;;;;;;2.60;2.40;;;17.80;95.60;;;;;;918226;152;27380;-77
2023/09/01 00:31:25;;;;;;;2.52;2.30;;;17.80;96.00;;;;;;918164;153;27809;-77
2023/09/01 00:33:52;;;;;;;3.98;2.58;;;17.80;96.10;;;;;;899272;155;27450;-77
2023/09/01 00:36:19;;;;;;;3.75;3.20;;;17.80;96.40;;;;;;937496;149;27490;-78
2023/09/01 00:38:45;;;;;;;3.70;2.20;;;17.70;96.50;;;;;;923508;152;27378;-77
2023/09/01 00:41:12;;;;;;;3.27;2.40;;;17.70;97.00;;;;;;944083;149;27323;-77
2023/09/01 00:43:38;;;;;;;3.27;2.37;;;17.70;97.40;;;;;;927422;151;27470;-77
2023/09/01 00:46:05;;;;;;;2.87;2.22;;;17.70;97.70;;;;;;944793;149;27335;-77
2023/09/01 00:48:32;;;;;;;3.02;2.00;;;17.70;98.10;;;;;;925326;152;27394;-77
2023/09/01 00:50:58;;;;;;;4.40;2.45;;;17.70;97.90;;;;;;928185;151;27370;-77
2023/09/01 00:53:25;;;;;;;2.50;2.30;;;17.70;98.30;;;;;;927789;151;27319;-78
2023/09/01 00:55:52;;;;;;;2.67;2.22;;;17.60;98.60;;;;;;923485;152;27319;-78
2023/09/01 00:58:18;;;;;;;2.08;1.87;;;17.60;98.80;;;;;;929534;151;27479;-78
2023/09/01 01:00:45;;;;;;;2.50;1.77;;;17.60;98.90;;;;;;926947;151;27489;-77
2023/09/01 01:03:11;;;;;;;2.42;2.00;;;17.60;98.90;;;;;;928402;151;27288;-78
2023/09/01 01:06:11;;;;;;;1.80;1.65;;;17.60;99.20;;;;;;943426;149;27327;-78
2023/09/01 01:08:43;;;;;;;2.20;2.00;;;17.50;99.20;;;;;;942640;149;27523;-77
2023/09/01 01:11:10;;;;;;;2.47;2.00;;;17.60;99.10;;;;;;904774;149;27432;-78
2023/09/01 01:13:36;;;;;;;2.22;1.62;;;17.50;99.60;;;;;;941913;149;27337;-78
2023/09/01 01:16:03;;;;;;;2.08;1.98;;;17.50;99.80;;;;;;942334;149;27359;-78
2023/09/01 01:18:29;;;;;;;2.17;1.98;;;17.50;99.90;;;;;;944494;148;27357;-77
2023/09/01 01:21:08;;;;;;;2.72;1.98;;;17.50;99.90;;;;;;943180;149;27329;-78
2023/09/01 01:23:35;;;;;;;2.80;1.90;;;17.50;99.90;;;;;;943723;149;27488;-78
2023/09/01 01:26:01;;;;;;;2.35;1.85;;;17.50;99.90;;;;;;945692;148;27334;-78
2023/09/01 01:28:28;;;;;;;1.90;1.80;;;17.50;99.90;;;;;;930403;151;27369;-78
2023/09/01 01:30:54;;;;;;;2.87;2.40;;;17.50;99.90;;;;;;931571;151;27368;-78
2023/09/01 01:33:36;;;;;;;3.17;1.90;;;17.40;99.90;;;;;;925898;152;27352;-78
2023/09/01 01:36:27;;;;;;;2.08;1.82;;;17.40;99.90;;;;;;943803;149;27425;-77
2023/09/01 01:39:06;;;;;;;2.02;1.60;;;17.50;99.90;;;;;;922008;152;27391;-78
2023/09/01 01:41:54;;;;;;;1.87;1.77;;;17.40;99.90;;;;;;940934;149;27371;-77
2023/09/01 01:44:17;;;;;;;1.75;1.62;;;17.50;99.90;;;;;;941621;149;27356;-77
2023/09/01 01:46:44;;;;;;;2.22;1.82;;;17.40;99.90;;;;;;943143;149;27464;-77
2023/09/01 01:49:10;;;;;;;2.05;1.92;;;17.40;99.90;;;;;;943829;149;27449;-76
2023/09/01 01:51:37;;;;;;;1.82;1.72;;;17.40;99.90;;;;;;943028;149;27337;-76
2023/09/01 01:54:05;;;;;;;2.83;2.00;;;17.40;99.90;;;;;;943791;148;27309;-76
2023/09/01 01:56:30;;;;;;;3.00;2.02;;;17.40;99.90;;;;;;942206;149;27364;-77
2023/09/01 01:58:57;;;;;;;2.35;2.15;;;17.40;99.90;;;;;;944233;149;27333;-76
2023/09/01 02:01:25;;;;;;;4.40;2.00;;;17.40;99.90;;;;;;941295;148;27337;-76
2023/09/01 02:03:50;;;;;;;2.37;2.00;;;17.50;99.90;;;;;;943449;149;27451;-77
2023/09/01 02:06:17;;;;;;;2.25;2.02;;;17.50;99.90;;;;;;943680;149;27510;-76
2023/09/01 02:08:43;;;;;;;2.77;2.20;;;17.50;99.90;;;;;;941681;149;27509;-76
2023/09/01 02:11:10;;;;;;;1.87;1.77;;;17.50;99.90;;;;;;943396;148;27387;-76
2023/09/01 02:13:36;;;;;;;2.15;2.05;;;17.50;99.90;;;;;;941913;149;27352;-76
2023/09/01 02:16:05;;;;;;;2.35;2.15;;;17.50;99.90;;;;;;943664;149;27394;-76
2023/09/01 02:18:29;;;;;;;3.35;2.45;;;17.50;99.90;;;;;;943821;149;27468;-76
2023/09/01 02:20:56;;;;;;;2.05;1.95;;;17.50;99.90;;;;;;944893;149;28599;-76
2023/09/01 02:23:23;;;;;;;3.00;2.50;;;17.50;99.90;;;;;;943216;149;27956;-76
2023/09/01 02:25:49;;;;;;;3.45;2.62;;;17.50;99.90;;;;;;947817;148;27446;-76
2023/09/01 02:28:16;;;;;;;3.55;2.40;;;17.50;99.90;;;;;;945129;148;27378;-76
2023/09/01 02:30:42;;;;;;;2.42;2.22;;;17.60;99.90;;;;;;943723;149;27792;-76
2023/09/01 02:33:09;;;;;;;2.35;2.10;;;17.50;99.90;;;;;;941895;149;27351;-76
2023/09/01 02:35:42;;;;;;;2.20;2.10;;;17.50;99.90;;;;;;944544;149;27345;-76
2023/09/01 02:38:08;;;;;;;2.55;2.25;;;17.50;99.90;;;;;;936469;150;27891;-76
2023/09/01 02:40:35;;;;;;;2.35;2.15;;;17.50;99.90;;;;;;931493;150;27485;-76
2023/09/01 02:43:03;;;;;;;3.00;1.95;;;17.50;99.90;;;;;;931025;150;27356;-76
2023/09/01 02:45:28;;;;;;;2.33;2.12;;;17.50;99.90;;;;;;931545;150;27343;-76
2023/09/01 02:47:55;;;;;;;3.02;1.90;;;17.50;99.90;;;;;;930308;150;27367;-76
2023/09/01 02:50:21;;;;;;;3.17;1.90;;;17.50;99.90;;;;;;930462;150;27478;-76
2023/09/01 02:52:48;;;;;;;2.25;2.05;;;17.60;99.90;;;;;;930260;150;27376;-76
2023/09/01 02:55:17;;;;;;;1.95;1.75;;;17.60;99.90;;;;;;929408;150;28079;-76
2023/09/01 02:57:41;;;;;;;2.30;2.08;;;17.60;99.90;;;;;;931389;150;27352;-76
2023/09/01 03:00:21;;;;;;;2.35;2.22;;;17.60;99.90;;;;;;932763;150;27360;-76
2023/09/01 03:02:43;;;;;;;2.30;2.10;;;17.60;99.90;;;;;;906433;154;27879;-77
2023/09/01 03:05:10;;;;;;;2.42;2.17;;;17.60;99.90;;;;;;917529;152;27356;-76
2023/09/01 03:07:36;;;;;;;2.58;1.70;;;17.60;99.90;;;;;;908680;153;27384;-76
2023/09/01 03:10:06;;;;;;;2.08;1.87;;;17.60;99.90;;;;;;930341;150;27409;-76
2023/09/01 03:12:29;;;;;;;2.17;1.90;;;17.50;99.90;;;;;;930735;150;27465;-77
2023/09/01 03:14:55;;;;;;;2.12;1.92;;;17.50;99.90;;;;;;930949;150;27319;-76
2023/09/01 03:17:22;;;;;;;3.25;1.87;;;17.50;99.90;;;;;;930529;150;27338;-76
2023/09/01 03:19:49;;;;;;;2.20;2.00;;;17.50;99.90;;;;;;931544;150;27347;-76
2023/09/01 03:22:15;;;;;;;2.00;1.90;;;17.50;99.90;;;;;;931442;150;27440;-76
2023/09/01 03:24:42;;;;;;;3.47;2.15;;;17.50;99.90;;;;;;906647;153;28314;-76
2023/09/01 03:27:08;;;;;;;2.22;2.02;;;17.50;99.90;;;;;;932152;150;27311;-76
2023/09/01 03:29:35;;;;;;;2.87;2.15;;;17.50;99.90;;;;;;908409;153;27330;-76
2023/09/01 03:32:02;;;;;;;1.90;1.80;;;17.50;99.90;;;;;;930525;150;27355;-76
2023/09/01 03:34:30;;;;;;;2.27;2.08;;;17.50;99.90;;;;;;930388;150;27366;-76
2023/09/01 03:36:55;;;;;;;2.10;1.92;;;17.50;99.90;;;;;;933226;150;27448;-76
2023/09/01 03:39:21;;;;;;;2.80;1.92;;;17.50;99.90;;;;;;930656;149;27357;-76
2023/09/01 03:41:48;;;;;;;1.90;1.75;;;17.50;99.90;;;;;;935692;148;27391;-76
2023/09/01 03:44:15;;;;;;;2.05;1.85;;;17.50;99.90;;;;;;927964;151;27481;-76
2023/09/01 03:46:41;;;;;;;2.05;1.95;;;17.50;99.90;;;;;;928397;151;27344;-76
2023/09/01 03:49:08;;;;;;;1.77;1.67;;;17.50;99.90;;;;;;928035;151;27469;-77
2023/09/01 03:51:34;;;;;;;2.20;2.00;;;17.50;99.90;;;;;;928504;151;27454;-75
2023/09/01 03:54:01;;;;;;;1.75;1.65;;;17.50;99.90;;;;;;927186;151;28535;-76
2023/09/01 03:56:28;;;;;;;3.62;1.98;;;17.50;99.90;;;;;;928130;151;27371;-76
2023/09/01 03:58:54;;;;;;;2.00;1.90;;;17.50;99.90;;;;;;927321;151;27420;-75
2023/09/01 04:01:21;;;;;;;2.08;1.98;;;17.50;99.90;;;;;;927307;151;27458;-75
2023/09/01 04:03:47;;;;;;;2.12;1.92;;;17.50;99.90;;;;;;927837;151;27384;-75
2023/09/01 04:06:14;;;;;;;1.92;1.80;;;17.50;99.90;;;;;;928599;151;27386;-75
2023/09/01 04:08:40;;;;;;;2.10;2.00;;;17.50;99.90;;;;;;928783;151;27451;-75
2023/09/01 04:11:07;;;;;;;2.02;1.72;;;17.50;99.90;;;;;;928314;151;27829;-75
2023/09/01 04:13:34;;;;;;;2.25;1.90;;;17.50;99.90;;;;;;929141;151;27401;-75
2023/09/01 04:16:00;;;;;;;1.75;1.65;;;17.50;99.90;;;;;;926933;151;27505;-75
2023/09/01 04:18:27;;;;;;;1.70;1.60;;;17.50;99.90;;;;;;927591;152;27405;-75
2023/09/01 04:20:53;;;;;;;2.47;2.00;;;17.50;99.90;;;;;;928095;151;27315;-75
2023/09/01 04:23:20;;;;;;;2.08;1.87;;;17.50;99.90;;;;;;927263;151;27354;-75
2023/09/01 04:25:47;;;;;;;2.85;1.92;;;17.50;99.90;;;;;;927758;151;27437;-76
2023/09/01 04:28:13;;;;;;;4.67;2.12;;;17.50;99.90;;;;;;928260;151;27562;-75
2023/09/01 04:30:40;;;;;;;2.00;1.90;;;17.50;99.90;;;;;;917063;151;28398;-75
2023/09/01 04:33:06;;;;;;;3.72;2.00;;;17.50;99.90;;;;;;914385;152;27382;-75
2023/09/01 04:35:33;;;;;;;1.85;1.75;;;17.50;99.90;;;;;;928152;151;27348;-76
2023/09/01 04:38:00;;;;;;;2.20;2.00;;;17.50;99.90;;;;;;926231;151;27471;-74
2023/09/01 04:40:26;;;;;;;2.25;2.10;;;17.50;99.90;;;;;;909959;154;27378;-75
2023/09/01 04:42:53;;;;;;;1.72;1.35;;;17.50;99.90;;;;;;909404;154;27406;-74
2023/09/01 04:45:19;;;;;;;1.77;1.67;;;17.50;99.90;;;;;;908650;154;27537;-75
2023/09/01 04:47:46;;;;;;;1.52;1.42;;;17.60;99.90;;;;;;909763;154;27487;-76
2023/09/01 04:50:12;;;;;;;1.52;1.42;;;17.60;99.90;;;;;;910260;154;27410;-75
2023/09/01 04:52:39;;;;;;;1.75;1.65;;;17.60;99.90;;;;;;908831;154;27374;-75
2023/09/01 04:55:06;;;;;;;1.57;1.47;;;17.60;99.90;;;;;;907903;154;27483;-75
2023/09/01 04:57:32;;;;;;;1.70;1.60;;;17.60;99.90;;;;;;908722;154;27482;-75
2023/09/01 04:59:59;;;;;;;1.55;1.45;;;17.60;99.90;;;;;;910746;154;27407;-74
2023/09/01 05:02:26;;;;;;;1.60;1.50;;;17.60;99.90;;;;;;909812;154;27836;-75
2023/09/01 05:04:52;;;;;;;1.70;1.60;;;17.60;99.90;;;;;;908318;154;27510;-75
2023/09/01 05:07:19;;;;;;;1.90;1.80;;;17.60;99.90;;;;;;909490;154;27500;-75
2023/09/01 05:09:45;;;;;;;1.70;1.60;;;17.60;99.90;;;;;;909284;154;27418;-76
2023/09/01 05:12:12;;;;;;;2.15;1.72;;;17.60;99.90;;;;;;909944;154;27942;-75
2023/09/01 05:14:38;;;;;;;2.00;1.70;;;17.60;99.90;;;;;;909728;154;27357;-75
2023/09/01 05:17:05;;;;;;;1.67;1.57;;;17.70;99.90;;;;;;909429;154;27373;-75
2023/09/01 05:19:32;;;;;;;1.80;1.70;;;17.70;99.90;;;;;;908740;154;27868;-74
2023/09/01 05:21:58;;;;;;;1.57;1.47;;;17.70;99.90;;;;;;909559;154;27725;-75
2023/09/01 05:24:25;;;;;;;1.70;1.60;;;17.70;99.90;;;;;;909424;154;27516;-75
2023/09/01 05:26:51;;;;;;;1.57;1.47;;;17.80;99.90;;;;;;908300;154;27431;-75
2023/09/01 05:29:18;;;;;;;2.77;1.40;;;17.80;99.90;;;;;;908721;154;27397;-75
2023/09/01 05:31:45;;;;;;;1.92;1.65;;;17.80;99.90;;;;;;909643;154;27413;-75
2023/09/01 05:34:11;;;;;;;1.50;1.32;;;17.80;99.90;;;;;;908764;154;27401;-75
2023/09/01 05:36:38;;;;;;;1.52;1.37;;;17.80;99.90;;;;;;899147;155;27394;-74
2023/09/01 05:39:04;;;;;;;2.55;1.72;;;17.80;99.90;;;;;;902231;152;27431;-75
2023/09/01 05:41:31;;;;;;;1.50;1.40;;;17.80;99.90;;;;;;931696;150;27434;-76
2023/09/01 05:43:58;;;;;;;1.75;1.30;;;17.80;99.90;;;;;;929433;150;28013;-75
2023/09/01 05:46:24;;;;;;;1.50;1.40;;;17.90;99.90;;;;;;915903;152;27783;-75
2023/09/01 05:48:51;;;;;;;1.25;1.25;;;17.90;99.90;;;;;;930970;150;27412;-75
2023/09/01 05:51:17;;;;;;;1.67;1.57;;;17.90;99.90;;;;;;931611;150;27332;-75
2023/09/01 05:53:44;;;;;;;1.80;1.70;;;18.00;99.90;;;;;;930492;150;27454;-75
2023/09/01 05:56:10;;;;;;;1.57;1.47;;;18.00;99.90;;;;;;929795;150;27463;-75
2023/09/01 05:58:37;;;;;;;1.75;1.40;;;18.10;99.90;;;;;;929174;150;27416;-75
2023/09/01 06:01:04;;;;;;;1.47;1.37;;;18.10;99.90;;;;;;930361;150;27364;-75
2023/09/01 06:03:30;;;;;;;2.25;1.42;;;18.20;99.90;;;;;;929747;150;27402;-76
2023/09/01 06:05:57;;;;;;;1.25;1.22;;;18.20;99.90;;;;;;929928;150;27443;-75
2023/09/01 06:08:23;;;;;;;1.42;1.30;;;18.30;99.90;;;;;;929742;150;28093;-75
2023/09/01 06:10:50;;;;;;;1.07;1.07;;;18.40;99.90;;;;;;929295;150;27396;-74
2023/09/01 06:13:17;;;;;;;1.47;1.37;;;18.40;99.90;;;;;;930442;150;27339;-76
2023/09/01 06:15:43;;;;;;;2.75;1.60;;;18.50;99.90;;;;;;932289;150;27383;-76
2023/09/01 06:18:10;;;;;;;1.52;1.07;;;18.50;99.90;;;;;;914167;152;27457;-76
2023/09/01 06:20:36;;;;;;;2.45;1.32;;;18.60;99.90;;;;;;914840;152;27337;-75
2023/09/01 06:23:03;;;;;;;1.62;1.45;;;18.70;99.90;;;;;;915986;152;27393;-76
2023/09/01 06:25:30;;;;;;;1.57;1.27;;;18.70;99.90;;;;;;914573;153;27488;-75
2023/09/01 06:27:56;;;;;;;1.15;1.05;;;18.70;99.90;;;;;;915247;152;27433;-76
2023/09/01 06:30:24;;;;;;;1.27;1.17;;;18.70;99.90;;;;;;915129;152;27360;-76
2023/09/01 06:32:49;;;;;;;1.50;1.40;;;18.70;99.90;;;;;;914751;152;27395;-76
2023/09/01 06:35:16;;;;;;;2.02;1.60;;;18.70;99.90;;;;;;915639;152;27412;-75
2023/09/01 06:37:42;;;;;;;1.30;1.20;;;18.80;99.90;;;;;;914741;152;27399;-76
2023/09/01 06:40:09;;;;;;;1.32;1.22;;;18.80;99.90;;;;;;914969;152;27477;-76
2023/09/01 06:42:36;;;;;;;1.40;1.40;;;18.80;99.90;;;;;;915543;152;27440;-76
2023/09/01 06:45:03;;;;;;;1.65;1.55;;;18.90;99.90;;;;;;915325;152;27459;-76
2023/09/01 06:47:29;;;;;;;1.70;1.60;;;18.90;99.90;;;;;;932874;150;27424;-76
2023/09/01 06:49:56;;;;;;;2.02;1.42;;;19.00;99.90;;;;;;932243;150;27436;-76
2023/09/01 06:52:22;;;;;;;1.62;1.52;;;19.00;99.90;;;;;;931938;150;27322;-76
2023/09/01 06:54:50;;;;;;;1.52;1.42;;;19.10;99.90;;;;;;931777;150;27466;-75
2023/09/01 06:57:15;;;;;;;1.98;1.60;;;19.10;99.90;;;;;;932240;150;27708;-76
2023/09/01 06:59:42;;;;;;;1.62;1.52;;;19.20;99.90;;;;;;932326;150;27370;-76
2023/09/01 07:02:09;;;;;;;1.57;1.47;;;19.30;99.90;;;;;;932789;150;27296;-76
2023/09/01 07:04:35;;;;;;;1.77;1.67;;;19.40;99.90;;;;;;931598;150;27383;-76
2023/09/01 07:07:02;;;;;;;1.50;1.40;;;19.40;99.90;;;;;;931516;150;27335;-76
2023/09/01 07:09:28;;;;;;;1.62;1.50;;;19.40;99.90;;;;;;933084;150;27403;-76
2023/09/01 07:11:55;;;;;;;1.65;1.55;;;19.50;99.90;;;;;;931016;150;27286;-76
2023/09/01 07:14:21;;;;;;;2.33;1.77;;;19.60;99.90;;;;;;931011;150;27359;-76
2023/09/01 07:16:48;;;;;;;2.00;1.80;;;19.60;99.90;;;;;;931675;150;27416;-75
2023/09/01 07:19:15;;;;;;;1.80;1.70;;;19.60;99.90;;;;;;932750;150;27439;-76
2023/09/01 07:21:41;;;;;;;1.90;1.80;;;19.70;99.90;;;;;;930654;150;27467;-76
2023/09/01 07:24:08;;;;;;;1.85;1.57;;;19.70;99.90;;;;;;931050;150;27421;-76
2023/09/01 07:26:34;;;;;;;1.98;1.87;;;19.80;99.90;;;;;;931130;150;27408;-76
2023/09/01 07:29:01;;;;;;;1.90;1.70;;;19.80;99.90;;;;;;931770;150;27335;-76
2023/09/01 07:31:28;;;;;;;1.65;1.55;;;19.80;99.90;;;;;;931714;150;27471;-76
2023/09/01 07:33:54;;;;;;;2.75;1.90;;;19.90;99.90;;;;;;931437;150;27466;-76
2023/09/01 07:36:21;;;;;;;1.87;1.77;;;19.90;99.90;;;;;;931238;150;27392;-76
2023/09/01 07:38:47;;;;;;;2.10;1.90;;;19.90;99.90;;;;;;932081;150;27382;-76
2023/09/01 07:41:14;;;;;;;1.62;1.52;;;19.90;99.90;;;;;;937232;149;27407;-76
2023/09/01 07:43:41;;;;;;;1.75;1.65;;;20.00;99.90;;;;;;944438;149;27337;-76
2023/09/01 07:46:07;;;;;;;1.62;1.52;;;20.00;99.90;;;;;;943464;149;27339;-76
2023/09/01 07:48:34;;;;;;;1.40;1.30;;;20.10;99.90;;;;;;943585;149;27727;-76
2023/09/01 07:51:00;;;;;;;2.20;1.70;;;20.20;99.90;;;;;;942460;148;27383;-76
2023/09/01 07:53:27;;;;;;;1.72;1.62;;;20.20;99.90;;;;;;943679;149;27364;-76
2023/09/01 07:55:54;;;;;;;1.82;1.72;;;20.30;99.90;;;;;;943584;149;27476;-76
2023/09/01 07:58:20;;;;;;;1.85;1.57;;;20.30;99.90;;;;;;943760;149;27430;-76
2023/09/01 08:00:47;;;;;;;1.80;1.70;;;20.40;99.90;;;;;;943432;149;27343;-76
2023/09/01 08:03:13;;;;;;;1.45;1.30;;;20.40;99.90;;;;;;943206;149;27365;-76
2023/09/01 08:05:40;;;;;;;1.70;1.60;;;20.50;99.90;;;;;;942355;149;27312;-76
2023/09/01 08:08:06;;;;;;;2.62;1.70;;;20.60;99.90;;;;;;945632;148;27431;-76
2023/09/01 08:10:33;;;;;;;1.47;1.37;;;20.70;99.90;;;;;;943974;149;27302;-76
2023/09/01 08:13:00;;;;;;;1.65;1.55;;;20.80;99.90;;;;;;943336;149;27403;-76
2023/09/01 08:15:26;;;;;;;1.35;1.25;;;20.90;99.90;;;;;;943786;149;27361;-76
2023/09/01 08:17:53;;;;;;;2.17;1.47;;;21.10;99.90;;;;;;943387;149;27316;-76
2023/09/01 08:20:19;;;;;;;1.50;1.30;;;21.20;99.90;;;;;;943506;149;27341;-76
2023/09/01 08:22:46;;;;;;;4.08;1.50;;;21.40;99.90;;;;;;944145;149;27394;-76
2023/09/01 08:25:13;;;;;;;1.52;1.42;;;21.50;99.90;;;;;;943979;148;27495;-76
2023/09/01 08:27:39;;;;;;;1.57;1.42;;;21.60;99.90;;;;;;943632;149;28296;-76
2023/09/01 08:30:06;;;;;;;1.67;1.45;;;21.70;99.90;;;;;;943875;149;27374;-76
2023/09/01 08:32:33;;;;;;;1.25;1.20;;;21.80;99.90;;;;;;944480;148;27301;-76
2023/09/01 08:34:59;;;;;;;1.40;1.30;;;21.80;99.90;;;;;;943884;149;27894;-76
2023/09/01 08:37:26;;;;;;;1.42;1.27;;;21.80;99.90;;;;;;943532;149;27362;-76
2023/09/01 08:39:52;;;;;;;1.50;1.40;;;21.90;99.90;;;;;;943542;149;27772;-75
2023/09/01 08:42:20;;;;;;;1.57;1.40;;;21.90;99.90;;;;;;944712;148;27490;-76
2023/09/01 08:44:45;;;;;;;1.40;1.30;;;21.90;99.90;;;;;;943458;149;27288;-75
2023/09/01 08:47:12;;;;;;;1.57;1.47;;;21.80;99.90;;;;;;935784;150;27420;-75
2023/09/01 08:49:39;;;;;;;1.47;1.37;;;21.80;99.90;;;;;;944471;149;27329;-75
2023/09/01 08:52:05;;;;;;;1.40;1.30;;;21.80;99.90;;;;;;940852;149;27407;-75
2023/09/01 08:54:34;;;;;;;1.80;1.50;;;21.80;99.90;;;;;;923374;152;27443;-75
2023/09/01 08:56:58;;;;;;;1.30;1.20;;;21.80;99.90;;;;;;945754;148;27368;-75
2023/09/01 08:59:28;;;;;;;1.30;1.20;;;21.80;99.90;;;;;;943867;149;27362;-76
2023/09/01 09:01:52;;;;;;;1.55;1.45;;;21.80;99.90;;;;;;943034;148;28144;-75
2023/09/01 09:04:18;;;;;;;1.77;1.55;;;21.90;99.90;;;;;;942080;149;27316;-75
2023/09/01 09:06:45;;;;;;;1.10;1.10;;;21.90;99.90;;;;;;943526;149;27338;-75
2023/09/01 09:09:12;;;;;;;1.50;1.40;;;21.90;99.90;;;;;;943635;149;27504;-75
2023/09/01 09:11:38;;;;;;;1.47;1.37;;;22.00;99.90;;;;;;942399;149;28404;-75
2023/09/01 09:14:05;;;;;;;1.50;1.40;;;22.00;99.90;;;;;;945339;148;27395;-75
2023/09/01 09:16:31;;;;;;;1.75;1.20;;;22.10;99.90;;;;;;943466;149;28241;-75
2023/09/01 09:18:58;;;;;;;1.30;1.27;;;22.20;99.90;;;;;;943745;149;27465;-75
2023/09/01 09:21:30;;;;;;;1.70;1.60;;;22.40;99.90;;;;;;943672;149;27373;-75
2023/09/01 09:23:56;;;;;;;3.72;2.12;;;22.50;99.90;;;;;;927666;150;27389;-76
2023/09/01 09:26:29;;;;;;;1.70;1.60;;;22.60;99.90;;;;;;943096;149;27403;-75
2023/09/01 09:28:55;;;;;;;1.57;1.47;;;22.80;99.90;;;;;;932508;151;27503;-75
2023/09/01 09:31:33;;;;;;;2.60;1.60;;;22.90;99.90;;;;;;923315;151;27446;-75
2023/09/01 09:33:57;;;;;;;1.80;1.70;;;23.00;99.90;;;;;;944192;149;27462;-76
2023/09/01 09:36:33;;;;;;;1.75;1.50;;;23.10;99.90;;;;;;925802;152;27413;-75
2023/09/01 09:38:59;;;;;;;1.60;1.50;;;23.10;99.90;;;;;;943791;149;27465;-75
2023/09/01 09:41:26;;;;;;;1.60;1.50;;;23.00;99.90;;;;;;927571;151;27430;-75
2023/09/01 09:43:52;;;;;;;1.75;1.65;;;23.00;99.90;;;;;;942234;149;27408;-75
2023/09/01 09:46:19;;;;;;;2.12;1.92;;;23.00;99.90;;;;;;944008;149;27376;-75
2023/09/01 09:48:46;;;;;;;2.02;1.85;;;23.10;99.90;;;;;;945139;148;27361;-75
2023/09/01 09:51:12;;;;;;;1.32;1.30;;;23.20;99.90;;;;;;943391;149;27346;-75
2023/09/01 09:53:39;;;;;;;1.55;1.45;;;23.30;99.90;;;;;;941955;149;27370;-75
2023/09/01 09:56:20;;;;;;;2.35;1.70;;;23.40;99.90;;;;;;944400;149;27318;-75
2023/09/01 09:58:44;;;;;;;1.70;1.60;;;23.70;99.90;;;;;;943356;149;27362;-75
2023/09/01 10:01:10;;;;;;;1.55;1.45;;;23.90;99.90;;;;;;942024;149;27283;-75
2023/09/01 10:03:37;;;;;;;1.57;1.47;;;24.10;99.90;;;;;;943988;149;27262;-75
2023/09/01 10:06:05;;;;;;;1.67;1.57;;;24.30;99.90;;;;;;944936;148;27427;-75
2023/09/01 10:08:30;;;;;;;1.52;1.42;;;24.50;99.90;;;;;;942787;149;27484;-75
2023/09/01 10:10:57;;;;;;;1.67;1.57;;;24.70;99.90;;;;;;927104;151;28752;-75
2023/09/01 10:13:23;;;;;;;1.45;1.35;;;24.80;99.90;;;;;;944151;149;27373;-75
2023/09/01 10:15:51;;;;;;;1.60;1.50;;;24.90;99.90;;;;;;944581;149;27318;-76
2023/09/01 10:18:16;;;;;;;2.02;1.70;;;24.90;99.90;;;;;;942749;149;27366;-75
2023/09/01 10:20:43;;;;;;;3.67;1.67;;;25.00;99.90;;;;;;943793;149;27379;-75
2023/09/01 10:23:10;;;;;;;1.57;1.47;;;25.10;99.90;;;;;;943258;148;27330;-76
2023/09/01 10:25:36;;;;;;;1.75;1.50;;;25.30;99.90;;;;;;942814;149;27430;-75
2023/09/01 10:28:11;;;;;;;1.47;1.37;;;25.50;99.90;;;;;;945731;149;27306;-76
2023/09/01 10:30:38;;;;;;;3.02;1.80;;;25.60;99.90;;;;;;943856;148;27342;-75
2023/09/01 10:33:16;;;;;;;1.55;1.45;;;25.80;99.90;;;;;;944130;149;27310;-75
2023/09/01 10:35:50;;;;;;;1.22;1.20;;;25.90;99.90;;;;;;943366;149;27358;-75
2023/09/01 10:38:17;;;;;;;1.75;1.65;;;26.00;99.90;;;;;;943329;149;27488;-75
2023/09/01 10:40:42;;;;;;;1.72;1.50;;;26.10;99.90;;;;;;942826;148;27384;-75
2023/09/01 10:43:08;;;;;;;1.25;1.15;;;26.10;99.30;;;;;;943114;149;27450;-75
2023/09/01 10:45:35;;;;;;;1.85;1.20;;;26.10;98.10;;;;;;947804;148;27343;-75
2023/09/01 10:48:04;;;;;;;1.87;1.40;;;26.10;97.60;;;;;;945112;149;27354;-76
2023/09/01 10:50:28;;;;;;;1.98;1.77;;;26.10;97.50;;;;;;943463;149;27361;-75
2023/09/01 10:53:29;;;;;;;1.30;1.20;;;26.10;96.90;;;;;;944781;149;27576;-76
2023/09/01 10:56:07;;;;;;;1.50;1.20;;;26.10;97.00;;;;;;943605;148;27419;-76
2023/09/01 10:58:40;;;;;;;0.98;0.85;;;26.00;97.00;;;;;;943099;149;27443;-75
2023/09/01 11:01:25;;;;;;;0.78;0.78;;;26.10;96.90;;;;;;943371;149;27367;-76
2023/09/01 11:03:52;;;;;;;1.00;1.00;;;26.00;96.50;;;;;;943686;149;27755;-77
2023/09/01 11:06:20;;;;;;;1.22;1.20;;;26.10;96.80;;;;;;944431;149;27436;-77
2023/09/01 11:08:58;;;;;;;1.10;1.10;;;26.10;97.20;;;;;;943333;149;27333;-76
2023/09/01 11:11:23;;;;;;;2.22;1.10;;;26.20;97.10;;;;;;944426;149;27306;-77
2023/09/01 11:13:53;;;;;;;2.27;1.10;;;26.30;96.90;;;;;;942495;148;27349;-76
2023/09/01 11:16:19;;;;;;;1.00;1.00;;;26.30;97.00;;;;;;937378;149;27508;-77
2023/09/01 11:18:46;;;;;;;1.60;1.50;;;26.50;96.40;;;;;;944542;149;27591;-78
2023/09/01 11:21:12;;;;;;;1.10;1.00;;;26.60;95.90;;;;;;942719;149;27767;-78
2023/09/01 11:23:39;;;;;;;1.12;1.10;;;26.70;95.50;;;;;;940946;149;27449;-76
2023/09/01 11:26:08;;;;;;;1.55;1.40;;;26.80;94.90;;;;;;942262;149;27801;-77
2023/09/01 11:28:32;;;;;;;1.50;1.32;;;26.90;94.30;;;;;;942537;149;27365;-77
2023/09/01 11:31:04;;;;;;;2.12;1.07;;;27.00;94.00;;;;;;944106;148;27407;-77
2023/09/01 11:33:36;;;;;;;1.40;1.02;;;27.10;93.20;;;;;;944100;149;27409;-78
2023/09/01 11:36:03;;;;;;;1.00;0.90;;;27.20;92.50;;;;;;941471;149;27314;-77
2023/09/01 11:38:30;;;;;;;0.82;0.60;;;27.30;92.00;;;;;;943291;149;27305;-77
2023/09/01 11:40:56;;;;;;;0.90;0.90;;;27.30;91.30;;;;;;944097;149;27423;-77
2023/09/01 11:43:23;;;;;;;1.07;0.95;;;27.30;90.50;;;;;;944628;149;27409;-77
2023/09/01 11:45:49;;;;;;;0.85;0.85;;;27.20;90.10;;;;;;943132;148;28202;-76
2023/09/01 11:48:23;;;;;;;1.02;1.02;;;27.20;89.20;;;;;;943128;148;27333;-76
2023/09/01 11:50:49;;;;;;;0.75;0.75;;;27.00;88.50;;;;;;943003;149;27454;-75
2023/09/01 11:53:21;;;;;;;1.72;1.15;;;26.80;88.40;;;;;;944111;149;27703;-75
2023/09/01 11:55:48;;;;;;;1.12;1.02;;;26.50;88.80;;;;;;944059;149;27493;-76
2023/09/01 11:58:15;;;;;;;1.17;1.07;;;26.30;89.30;;;;;;943802;149;27764;-76
2023/09/01 12:00:41;;;;;;;1.10;1.00;;;26.00;90.10;;;;;;944893;149;27397;-76
2023/09/01 12:03:07;;;;;;;0.85;0.80;;;25.70;91.10;;;;;;945809;149;27330;-76
2023/09/01 12:05:34;;;;;;;1.85;1.07;;;25.50;92.10;;;;;;943754;148;27365;-77
2023/09/01 12:08:01;;;;;;;1.00;1.00;;;25.20;93.10;;;;;;941701;149;27407;-76
2023/09/01 12:10:27;;;;;;;1.42;1.25;;;25.00;93.30;;;;;;930031;151;27370;-76
2023/09/01 12:13:03;;;;;;;0.90;0.90;;;24.80;93.90;;;;;;923248;152;27378;-77
2023/09/01 12:15:29;;;;;;;1.47;0.75;;;24.60;94.90;;;;;;944728;149;27487;-76
2023/09/01 12:17:56;;;;;;;0.93;0.72;;;24.50;96.20;;;;;;944582;148;27485;-77
2023/09/01 12:20:22;;;;;;;1.55;0.90;;;24.40;97.80;;;;;;942887;148;27680;-76
2023/09/01 12:22:49;;;;;;;1.00;0.68;;;24.30;99.90;;;;;;944870;148;27338;-76
2023/09/01 12:25:16;;;;;;;0.60;0.60;;;24.30;99.90;;;;;;943773;149;27794;-76
2023/09/01 12:27:42;;;;;;;0.25;0.25;;;24.50;99.90;;;;;;943607;149;27349;-76
2023/09/01 12:30:09;;;;;;;0.72;0.57;;;24.70;99.90;;;;;;944296;149;27424;-76
2023/09/01 12:32:36;;;;;;;0.45;0.45;;;24.90;99.90;;;;;;929147;151;27752;-77
2023/09/01 12:35:02;;;;;;;0.40;0.40;;;25.20;99.90;;;;;;945753;148;27402;-76
2023/09/01 12:37:29;;;;;;;0.85;0.40;;;25.40;99.90;;;;;;925331;152;27447;-76
2023/09/01 12:39:55;;;;;;;0.62;0.62;;;25.60;99.90;;;;;;943923;148;27792;-77
2023/09/01 12:42:22;;;;;;;0.35;0.30;;;25.80;99.90;;;;;;944133;149;27263;-77
2023/09/01 12:44:48;;;;;;;0.70;0.70;;;26.00;99.90;;;;;;930138;150;27410;-77
2023/09/01 12:47:15;;;;;;;1.22;0.53;;;26.10;98.60;;;;;;947775;148;27352;-77
2023/09/01 12:49:43;;;;;;;0.53;0.53;;;26.10;97.40;;;;;;932092;150;27516;-77